Time;durP1;ratioP1;P1;durP2;ratioP2;P2;SDS_P1;SDS_P2;PMS_P1;PMS_P2;Temp;Humidity;BMP_temperature;BMP_pressure;BME280_temperature;BME280_humidity;BME280_pressure;Samples;Min_cycle;Max_cycle;Signal;HPM_P1;HPM_P2
2023/06/16 00:01:42;;;;;;;1999.90;999.90;;;17.00;99.90;;;;;;5035115;28;20076;-73
2023/06/16 00:04:08;;;;;;;1999.90;999.90;;;17.00;99.90;;;;;;5034213;28;20124;-72
2023/06/16 00:06:36;;;;;;;1999.90;999.90;;;16.90;99.90;;;;;;5032567;28;20045;-73
2023/06/16 00:09:02;;;;;;;1999.90;999.90;;;16.90;99.90;;;;;;5035458;28;20049;-72
2023/06/16 00:11:28;;;;;;;1999.90;999.90;;;16.90;99.90;;;;;;5033790;28;20081;-72
2023/06/16 00:13:56;;;;;;;1999.90;999.90;;;16.80;99.90;;;;;;5017220;28;20088;-72
2023/06/16 00:16:23;;;;;;;1999.90;999.90;;;16.80;99.90;;;;;;5033622;28;20045;-73
2023/06/16 00:18:51;;;;;;;1999.90;999.90;;;16.80;99.90;;;;;;5032823;28;20514;-73
2023/06/16 00:21:37;;;;;;;1999.90;999.90;;;16.70;99.90;;;;;;5034635;28;20123;-72
2023/06/16 00:24:07;;;;;;;1999.90;999.90;;;16.70;99.90;;;;;;5034889;28;20065;-72
2023/06/16 00:26:34;;;;;;;1999.90;999.90;;;16.70;99.90;;;;;;5032911;28;20050;-72
2023/06/16 00:29:00;;;;;;;1999.90;999.90;;;16.60;99.90;;;;;;5017403;28;20056;-72
2023/06/16 00:31:25;;;;;;;1999.90;999.90;;;16.60;99.90;;;;;;5034322;28;20041;-72
2023/06/16 00:33:54;;;;;;;1999.90;999.90;;;16.60;99.90;;;;;;5033114;28;20045;-72
2023/06/16 00:36:20;;;;;;;1999.90;999.90;;;16.60;99.90;;;;;;5033944;28;20596;-74
2023/06/16 00:38:46;;;;;;;1999.90;999.90;;;16.60;99.90;;;;;;5017434;28;20057;-72
2023/06/16 00:41:13;;;;;;;1999.90;999.90;;;16.60;99.90;;;;;;5033338;28;20050;-73
2023/06/16 00:43:39;;;;;;;1999.90;999.90;;;16.60;99.90;;;;;;5036747;28;20046;-73
2023/06/16 00:46:05;;;;;;;1999.90;999.90;;;16.60;99.90;;;;;;5033007;28;20048;-73
2023/06/16 00:48:31;;;;;;;1999.90;999.90;;;16.60;99.90;;;;;;5032235;28;20037;-73
2023/06/16 00:50:57;;;;;;;1999.90;999.90;;;16.60;99.90;;;;;;5031887;28;20042;-73
2023/06/16 00:53:25;;;;;;;1999.90;999.90;;;16.60;99.90;;;;;;5041324;28;20033;-73
2023/06/16 00:55:51;;;;;;;;;;;16.60;99.90;;;;;;5037767;28;20084;-73
2023/06/16 00:58:18;;;;;;;1999.90;999.90;;;16.50;99.90;;;;;;5032955;28;19921;-74
2023/06/16 01:00:46;;;;;;;1999.90;999.90;;;16.50;99.90;;;;;;5033896;28;20107;-73
2023/06/16 01:03:13;;;;;;;1999.90;999.90;;;16.40;99.90;;;;;;5016744;28;20053;-73
2023/06/16 01:05:39;;;;;;;1999.90;999.90;;;16.40;99.90;;;;;;5032170;28;20049;-73
2023/06/16 01:08:11;;;;;;;1999.90;999.90;;;16.30;99.90;;;;;;5032393;28;20095;-73
2023/06/16 01:10:52;;;;;;;1999.90;999.90;;;16.30;99.90;;;;;;5032719;28;20410;-72
2023/06/16 01:13:50;;;;;;;1999.90;999.90;;;16.30;99.90;;;;;;5034113;28;20054;-73
2023/06/16 01:16:21;;;;;;;1999.90;999.90;;;16.30;99.90;;;;;;5033822;28;20094;-73
2023/06/16 01:18:51;;;;;;;1999.90;999.90;;;16.20;99.90;;;;;;5032825;28;20057;-73
2023/06/16 01:21:54;;;;;;;1999.90;999.90;;;16.20;99.90;;;;;;5032044;28;20076;-72
2023/06/16 01:24:24;;;;;;;1999.90;999.90;;;16.20;99.90;;;;;;5033878;28;20041;-73
2023/06/16 01:26:53;;;;;;;1999.90;999.90;;;16.20;99.90;;;;;;5032808;28;20049;-75
2023/06/16 01:29:24;;;;;;;1999.90;999.90;;;16.10;99.90;;;;;;5032305;28;20042;-73
2023/06/16 01:31:53;;;;;;;1999.90;999.90;;;16.10;99.90;;;;;;5033307;28;20049;-73
2023/06/16 01:34:20;;;;;;;1999.90;999.90;;;16.10;99.90;;;;;;5033816;28;20052;-74
2023/06/16 01:36:47;;;;;;;1999.90;999.90;;;16.00;99.90;;;;;;5031554;28;20053;-73
2023/06/16 01:39:15;;;;;;;1999.90;999.90;;;16.00;99.90;;;;;;5031374;28;20552;-73
2023/06/16 01:41:41;;;;;;;1999.90;999.90;;;16.00;99.90;;;;;;5032209;28;20041;-73
2023/06/16 01:44:08;;;;;;;1999.90;999.90;;;15.90;99.90;;;;;;5033438;28;20045;-73
2023/06/16 01:46:35;;;;;;;1999.90;999.90;;;15.90;99.90;;;;;;5015026;28;20520;-73
2023/06/16 01:49:01;;;;;;;1999.90;999.90;;;15.90;99.90;;;;;;5032919;28;20045;-73
2023/06/16 01:51:27;;;;;;;1999.90;999.90;;;15.90;99.90;;;;;;5030245;28;20103;-75
2023/06/16 01:53:53;;;;;;;1999.90;999.90;;;15.80;99.90;;;;;;5031289;28;20037;-73
2023/06/16 01:56:19;;;;;;;1999.90;999.90;;;15.80;99.90;;;;;;5031788;28;20089;-73
2023/06/16 01:58:46;;;;;;;1999.90;999.90;;;15.70;99.90;;;;;;5030700;28;20041;-73
2023/06/16 02:01:20;;;;;;;1999.90;999.90;;;15.70;99.90;;;;;;4997083;28;20095;-74
2023/06/16 02:03:58;;;;;;;1999.90;999.90;;;15.70;99.90;;;;;;5031373;28;20088;-73
2023/06/16 02:06:39;;;;;;;1999.90;999.90;;;15.60;99.90;;;;;;5033512;28;20490;-74
2023/06/16 02:09:07;;;;;;;1999.90;999.90;;;15.60;99.90;;;;;;5044335;28;20079;-73
2023/06/16 02:11:33;;;;;;;;;;;15.60;99.90;;;;;;5030674;28;20041;-74
2023/06/16 02:13:59;;;;;;;1999.90;999.90;;;15.60;99.90;;;;;;5014134;28;19920;-73
2023/06/16 02:16:25;;;;;;;1999.90;999.90;;;15.50;99.90;;;;;;5032133;28;20595;-73
2023/06/16 02:18:53;;;;;;;1999.90;999.90;;;15.40;99.90;;;;;;5031829;28;20045;-73
2023/06/16 02:21:21;;;;;;;1999.90;999.90;;;15.40;99.90;;;;;;5023655;28;20084;-73
2023/06/16 02:23:46;;;;;;;1999.90;999.90;;;15.30;99.90;;;;;;5028857;28;20049;-73
2023/06/16 02:26:12;;;;;;;1999.90;999.90;;;15.30;99.90;;;;;;5031117;28;20046;-74
2023/06/16 02:28:38;;;;;;;1999.90;999.90;;;15.30;99.90;;;;;;5031783;28;20085;-73
2023/06/16 02:31:03;;;;;;;1999.90;999.90;;;15.20;99.90;;;;;;5030250;28;20057;-78
2023/06/16 02:33:29;;;;;;;1999.90;999.90;;;15.20;99.90;;;;;;5030265;28;20052;-73
2023/06/16 02:35:55;;;;;;;1999.90;999.90;;;15.20;99.90;;;;;;4997133;28;20049;-73
2023/06/16 02:38:20;;;;;;;1999.90;999.90;;;15.20;99.90;;;;;;5030382;28;20041;-73
2023/06/16 02:40:46;;;;;;;1999.90;999.90;;;15.20;99.90;;;;;;5012068;28;20406;-73
2023/06/16 02:43:12;;;;;;;1999.90;999.90;;;15.20;99.90;;;;;;5013142;28;20041;-73
2023/06/16 02:45:39;;;;;;;1999.90;999.90;;;15.20;99.90;;;;;;5030904;28;20041;-72
2023/06/16 02:48:05;;;;;;;1999.90;999.90;;;15.20;99.90;;;;;;5031111;28;20049;-74
2023/06/16 02:50:31;;;;;;;1999.90;999.90;;;15.20;99.90;;;;;;5029569;28;20060;-73
2023/06/16 02:52:57;;;;;;;1999.90;999.90;;;15.20;99.90;;;;;;5029885;28;20140;-74
2023/06/16 02:55:24;;;;;;;1999.90;999.90;;;15.20;99.90;;;;;;5027580;28;20045;-76
2023/06/16 02:57:50;;;;;;;1999.90;999.90;;;15.20;99.90;;;;;;5005465;28;20071;-74
2023/06/16 03:00:16;;;;;;;1999.90;999.90;;;15.20;99.90;;;;;;5031656;28;20045;-74
2023/06/16 03:02:42;;;;;;;1999.90;999.90;;;15.20;99.90;;;;;;5031078;28;20041;-74
2023/06/16 03:05:07;;;;;;;1999.90;999.28;;;15.20;99.90;;;;;;5034140;28;20056;-74
2023/06/16 03:07:34;;;;;;;1999.90;999.90;;;15.20;99.90;;;;;;5033569;28;20047;-74
2023/06/16 03:10:01;;;;;;;1999.90;999.90;;;15.20;99.90;;;;;;5032338;28;20053;-73
2023/06/16 03:12:27;;;;;;;1999.90;999.90;;;15.20;99.90;;;;;;5012858;28;20046;-73
2023/06/16 03:14:53;;;;;;;1999.90;999.90;;;15.10;99.90;;;;;;5029958;28;20108;-73
2023/06/16 03:17:21;;;;;;;1999.90;999.90;;;15.10;99.90;;;;;;5014509;28;20049;-73
2023/06/16 03:19:50;;;;;;;1999.90;999.90;;;15.10;99.90;;;;;;5025008;28;20072;-73
2023/06/16 03:22:16;;;;;;;1999.90;999.90;;;15.00;99.90;;;;;;5012172;28;20042;-79
2023/06/16 03:24:43;;;;;;;1999.90;999.90;;;15.00;99.90;;;;;;5030950;28;20041;-74
2023/06/16 03:27:09;;;;;;;1999.90;999.90;;;15.00;99.90;;;;;;5031013;28;20060;-73
2023/06/16 03:29:36;;;;;;;1999.90;999.90;;;15.00;99.90;;;;;;5013061;28;20425;-73
2023/06/16 03:32:05;;;;;;;1999.90;999.90;;;14.90;99.90;;;;;;5023834;28;20065;-73
2023/06/16 03:34:31;;;;;;;1999.90;999.90;;;14.90;99.90;;;;;;5030672;28;20508;-73
2023/06/16 03:36:57;;;;;;;1999.90;999.08;;;14.90;99.90;;;;;;5031391;28;20045;-73
2023/06/16 03:39:23;;;;;;;1999.90;999.90;;;15.00;99.90;;;;;;5032141;28;20045;-73
2023/06/16 03:41:49;;;;;;;1999.90;999.90;;;14.90;99.90;;;;;;5030519;28;20487;-73
2023/06/16 03:44:15;;;;;;;1999.90;999.90;;;14.90;99.90;;;;;;5031283;28;20051;-72
2023/06/16 03:46:40;;;;;;;1999.90;999.90;;;14.90;99.90;;;;;;5012353;28;20498;-73
2023/06/16 03:49:09;;;;;;;1999.90;999.90;;;15.00;99.90;;;;;;5025031;28;20072;-73
2023/06/16 03:51:35;;;;;;;1999.90;999.90;;;15.00;99.90;;;;;;5031610;28;20051;-73
2023/06/16 03:54:01;;;;;;;1999.90;999.90;;;15.00;99.90;;;;;;5018658;28;20125;-73
2023/06/16 03:56:27;;;;;;;1999.90;999.90;;;15.00;99.90;;;;;;5018049;28;20561;-73
2023/06/16 03:58:55;;;;;;;1999.90;999.90;;;15.10;99.90;;;;;;5019806;28;20128;-73
2023/06/16 04:01:22;;;;;;;;;;;15.10;99.90;;;;;;5035756;28;20115;-72
2023/06/16 04:03:49;;;;;;;1999.90;999.90;;;15.20;99.90;;;;;;5032297;28;19927;-73
2023/06/16 04:06:15;;;;;;;1999.90;999.90;;;15.20;99.90;;;;;;5033344;28;20046;-73
2023/06/16 04:08:41;;;;;;;1999.90;999.90;;;15.30;99.90;;;;;;4994937;28;20128;-73
2023/06/16 04:11:07;;;;;;;1999.90;999.90;;;15.40;99.90;;;;;;5024653;28;20124;-73
2023/06/16 04:13:33;;;;;;;1999.90;973.20;;;15.40;99.90;;;;;;5027859;28;20053;-73
2023/06/16 04:15:59;;;;;;;1999.90;999.90;;;15.50;99.90;;;;;;5013037;28;20148;-73
2023/06/16 04:18:24;;;;;;;1999.90;977.80;;;15.60;99.90;;;;;;5035272;28;20498;-73
2023/06/16 04:20:50;;;;;;;1999.90;999.90;;;15.70;99.90;;;;;;5018980;28;20054;-73
2023/06/16 04:23:16;;;;;;;1999.90;926.10;;;15.70;99.90;;;;;;5031448;28;20095;-73
2023/06/16 04:25:42;;;;;;;1999.90;999.90;;;15.80;99.90;;;;;;5033134;28;20153;-73
2023/06/16 04:28:13;;;;;;;1999.90;999.90;;;15.90;99.90;;;;;;5017176;28;20103;-73
2023/06/16 04:30:43;;;;;;;1999.90;999.90;;;15.90;99.90;;;;;;5015630;28;20106;-73
2023/06/16 04:33:10;;;;;;;1999.90;999.90;;;16.10;99.90;;;;;;5017025;28;20045;-75
2023/06/16 04:35:36;;;;;;;1999.90;913.05;;;16.10;99.90;;;;;;5014732;28;20049;-73
2023/06/16 04:38:02;;;;;;;1999.90;999.90;;;16.20;99.90;;;;;;5024704;28;20083;-74
2023/06/16 04:40:29;;;;;;;1999.90;999.90;;;16.20;99.90;;;;;;5033133;28;20057;-73
2023/06/16 04:42:55;;;;;;;1999.90;754.30;;;16.30;99.90;;;;;;5033821;28;20394;-73
2023/06/16 04:45:22;;;;;;;1999.90;999.90;;;16.30;99.90;;;;;;5031645;28;20430;-73
2023/06/16 04:47:50;;;;;;;1999.90;936.22;;;16.30;99.90;;;;;;5030005;28;20069;-81
2023/06/16 04:50:16;;;;;;;1999.90;999.90;;;16.30;99.90;;;;;;5033309;28;20037;-77
2023/06/16 04:52:42;;;;;;;1999.90;999.90;;;16.30;99.90;;;;;;5033732;28;20466;-73
2023/06/16 04:55:08;;;;;;;1999.90;999.90;;;16.20;99.90;;;;;;5013405;28;20844;-73
2023/06/16 04:57:35;;;;;;;1999.90;999.90;;;16.20;99.90;;;;;;5015138;28;20040;-73
2023/06/16 05:00:07;;;;;;;1999.90;999.90;;;16.20;99.90;;;;;;5033867;28;20049;-73
2023/06/16 05:02:33;;;;;;;1999.90;999.90;;;16.10;99.90;;;;;;5001698;28;20061;-72
2023/06/16 05:05:00;;;;;;;1999.90;999.90;;;16.10;99.90;;;;;;5010080;28;20049;-73
2023/06/16 05:07:26;;;;;;;1999.90;999.90;;;16.10;99.90;;;;;;5032257;28;20559;-73
2023/06/16 05:09:51;;;;;;;1999.90;786.13;;;16.10;99.90;;;;;;5036348;28;20037;-77
2023/06/16 05:12:17;;;;;;;1999.90;744.55;;;16.10;99.90;;;;;;4993616;28;20425;-73
2023/06/16 05:14:43;;;;;;;1999.90;720.92;;;16.10;99.90;;;;;;5028922;28;20150;-73
2023/06/16 05:17:09;;;;;;;1999.90;999.90;;;16.10;99.90;;;;;;5025822;28;20125;-73
2023/06/16 05:19:35;;;;;;;1999.90;999.90;;;16.10;99.90;;;;;;4993697;28;20136;-73
2023/06/16 05:22:01;;;;;;;1999.90;999.90;;;16.10;99.90;;;;;;5033655;28;20037;-73
2023/06/16 05:24:26;;;;;;;1999.90;999.90;;;16.20;99.90;;;;;;5014617;28;20132;-73
2023/06/16 05:26:52;;;;;;;1999.90;999.90;;;16.20;99.90;;;;;;5030926;28;20549;-74
2023/06/16 05:29:17;;;;;;;1999.90;556.25;;;16.20;99.90;;;;;;5031230;28;20053;-73
2023/06/16 05:31:43;;;;;;;1999.90;683.15;;;16.20;99.90;;;;;;5026898;28;20054;-73
2023/06/16 05:34:09;;;;;;;1999.90;999.90;;;16.30;99.90;;;;;;5012805;28;20049;-73
2023/06/16 05:36:35;;;;;;;1999.90;999.90;;;16.30;99.90;;;;;;5030728;28;20049;-77
2023/06/16 05:39:07;;;;;;;1999.90;999.90;;;16.30;99.90;;;;;;5011029;28;20434;-72
2023/06/16 05:41:34;;;;;;;1999.90;999.90;;;16.40;99.90;;;;;;5024144;28;20049;-77
2023/06/16 05:44:00;;;;;;;1999.90;844.90;;;16.40;99.90;;;;;;5010061;28;20045;-79
2023/06/16 05:46:26;;;;;;;1999.90;999.90;;;16.40;99.90;;;;;;5032454;28;20119;-71
2023/06/16 05:48:52;;;;;;;1999.90;999.90;;;16.50;99.90;;;;;;5033427;28;20041;-72
2023/06/16 05:51:17;;;;;;;1999.90;353.80;;;16.50;99.90;;;;;;5031810;28;20080;-73
2023/06/16 05:53:43;;;;;;;1999.90;999.90;;;16.60;99.90;;;;;;5031728;28;20045;-73
2023/06/16 05:56:09;;;;;;;1999.90;999.90;;;16.60;99.90;;;;;;5031086;28;20048;-72
2023/06/16 05:58:37;;;;;;;1999.90;999.90;;;16.60;99.90;;;;;;5033426;28;20553;-74
2023/06/16 06:01:06;;;;;;;1999.90;999.90;;;16.70;99.90;;;;;;5030492;28;20091;-72
2023/06/16 06:03:32;;;;;;;1999.90;999.90;;;16.70;99.90;;;;;;5032087;28;20037;-74
2023/06/16 06:05:58;;;;;;;1999.90;999.90;;;16.80;99.90;;;;;;5028820;28;20171;-81
2023/06/16 06:08:27;;;;;;;1999.90;999.90;;;16.80;99.90;;;;;;5030672;28;20498;-73
2023/06/16 06:10:54;;;;;;;1999.90;999.90;;;16.90;99.90;;;;;;5008444;28;20128;-72
2023/06/16 06:13:20;;;;;;;1999.90;335.65;;;17.00;99.90;;;;;;5011281;28;20524;-72
2023/06/16 06:15:46;;;;;;;1999.90;999.90;;;17.00;99.90;;;;;;5031555;28;20077;-73
2023/06/16 06:18:11;;;;;;;1999.90;999.90;;;17.10;99.90;;;;;;5012083;28;20083;-73
2023/06/16 06:20:40;;;;;;;1999.90;999.90;;;17.20;99.90;;;;;;5032611;28;20052;-74
2023/06/16 06:23:06;;;;;;;1999.90;999.90;;;17.30;99.90;;;;;;5030642;28;20041;-73
2023/06/16 06:25:32;;;;;;;1999.90;999.90;;;17.40;99.90;;;;;;5027857;28;20037;-73
2023/06/16 06:27:58;;;;;;;1999.90;999.90;;;17.50;99.90;;;;;;5014678;28;20050;-73
2023/06/16 06:30:25;;;;;;;1999.90;999.90;;;17.50;99.90;;;;;;5030297;28;20414;-73
2023/06/16 06:32:51;;;;;;;1999.90;719.63;;;17.60;99.90;;;;;;5015423;28;20072;-74
2023/06/16 06:35:16;;;;;;;1999.90;999.75;;;17.70;99.90;;;;;;5030594;28;20049;-73
2023/06/16 06:37:43;;;;;;;1999.90;999.90;;;17.80;99.90;;;;;;5029775;28;20049;-73
2023/06/16 06:40:09;;;;;;;1999.90;999.90;;;17.80;99.90;;;;;;4997149;28;20056;-73
2023/06/16 06:42:35;;;;;;;1999.90;999.90;;;17.90;99.90;;;;;;5030625;28;20071;-73
2023/06/16 06:45:01;;;;;;;1999.90;999.90;;;18.00;99.90;;;;;;5014685;28;20056;-73
2023/06/16 06:47:27;;;;;;;1999.90;999.90;;;18.10;99.90;;;;;;5014426;28;20390;-73
2023/06/16 06:49:56;;;;;;;1999.90;999.90;;;18.20;99.90;;;;;;5012051;28;21928;-73
2023/06/16 06:52:22;;;;;;;1999.90;999.90;;;18.20;99.90;;;;;;5013753;28;20041;-73
2023/06/16 06:54:47;;;;;;;1999.90;999.90;;;18.40;99.90;;;;;;5032048;28;20041;-73
2023/06/16 06:57:13;;;;;;;1999.90;999.90;;;18.40;99.90;;;;;;5031179;28;20053;-74
2023/06/16 06:59:42;;;;;;;1999.90;999.90;;;18.50;99.90;;;;;;5032260;28;20509;-74
2023/06/16 07:02:08;;;;;;;1999.90;999.90;;;18.60;99.90;;;;;;5030893;28;20049;-73
2023/06/16 07:04:35;;;;;;;1999.90;999.90;;;18.70;99.90;;;;;;5031510;28;20140;-72
2023/06/16 07:07:02;;;;;;;1999.90;999.90;;;18.80;99.90;;;;;;5014473;28;20090;-73
2023/06/16 07:09:27;;;;;;;1999.90;999.90;;;19.00;99.90;;;;;;5021890;28;20041;-73
2023/06/16 07:11:53;;;;;;;1999.90;999.90;;;19.10;99.90;;;;;;4993966;28;20096;-74
2023/06/16 07:14:19;;;;;;;1999.90;999.90;;;19.30;99.90;;;;;;5029572;28;20103;-72
2023/06/16 07:16:45;;;;;;;1999.90;999.90;;;19.50;99.90;;;;;;4997184;28;20052;-71
2023/06/16 07:19:10;;;;;;;1999.90;999.90;;;19.70;99.90;;;;;;5012941;28;20444;-72
2023/06/16 07:21:38;;;;;;;1999.90;999.90;;;20.00;99.90;;;;;;5030918;28;20103;-72
2023/06/16 07:24:05;;;;;;;1999.90;999.90;;;20.20;99.90;;;;;;5027288;28;20045;-72
2023/06/16 07:26:31;;;;;;;1999.90;999.90;;;20.40;99.90;;;;;;5029056;28;20042;-72
2023/06/16 07:28:57;;;;;;;1999.90;999.90;;;20.70;99.90;;;;;;5014299;28;20053;-72
2023/06/16 07:31:22;;;;;;;1999.90;999.90;;;20.90;99.90;;;;;;5034443;28;20045;-72
2023/06/16 07:33:48;;;;;;;1999.90;999.90;;;21.10;99.90;;;;;;5017661;28;20084;-71
2023/06/16 07:36:14;;;;;;;1999.90;999.90;;;21.30;99.90;;;;;;5033679;28;20450;-72
2023/06/16 07:38:39;;;;;;;1999.90;999.90;;;21.60;99.90;;;;;;5036512;28;20405;-72
2023/06/16 07:41:07;;;;;;;1999.90;999.90;;;21.70;99.90;;;;;;5034564;28;20053;-72
2023/06/16 07:43:33;;;;;;;1999.90;999.90;;;21.90;99.90;;;;;;5033158;28;20045;-72
2023/06/16 07:45:59;;;;;;;1999.90;999.90;;;22.10;99.90;;;;;;5034054;28;20046;-72
2023/06/16 07:48:25;;;;;;;1999.90;999.90;;;22.30;99.90;;;;;;5017834;28;20458;-72
2023/06/16 07:50:51;;;;;;;1999.90;999.90;;;22.40;99.90;;;;;;5035445;28;20049;-72
2023/06/16 07:53:16;;;;;;;1999.90;999.90;;;22.60;99.90;;;;;;5017738;28;20060;-72
2023/06/16 07:55:42;;;;;;;1999.90;999.90;;;22.70;99.90;;;;;;5015660;28;20045;-73
2023/06/16 07:58:08;;;;;;;1999.90;999.90;;;22.80;99.90;;;;;;5035385;28;20056;-72
2023/06/16 08:00:34;;;;;;;1999.90;999.90;;;22.90;99.90;;;;;;5016532;28;20037;-78
2023/06/16 08:03:00;;;;;;;1999.90;999.90;;;23.10;99.90;;;;;;5017794;28;20041;-73
2023/06/16 08:05:26;;;;;;;1999.90;999.90;;;23.20;99.90;;;;;;5015791;28;20060;-72
2023/06/16 08:07:51;;;;;;;1999.90;999.90;;;23.40;99.90;;;;;;5034222;28;20049;-72
2023/06/16 08:10:20;;;;;;;1999.90;999.90;;;23.50;99.90;;;;;;5032751;28;20116;-74
2023/06/16 08:12:49;;;;;;;1999.90;999.90;;;23.70;99.90;;;;;;5030556;28;20061;-72
2023/06/16 08:15:16;;;;;;;1999.90;999.90;;;23.80;99.90;;;;;;5033704;28;20572;-72
2023/06/16 08:17:42;;;;;;;1999.90;999.90;;;23.90;99.90;;;;;;5016090;28;20508;-73
2023/06/16 08:20:09;;;;;;;1999.90;999.90;;;24.10;99.90;;;;;;5034308;28;20586;-72
2023/06/16 08:22:35;;;;;;;1999.90;999.90;;;24.20;99.90;;;;;;5036839;28;20045;-72
2023/06/16 08:25:02;;;;;;;1999.90;999.90;;;24.30;99.90;;;;;;5017360;28;20103;-72
2023/06/16 08:27:27;;;;;;;1999.90;999.90;;;24.50;99.90;;;;;;5031751;28;20116;-72
2023/06/16 08:29:53;;;;;;;1999.90;999.90;;;24.60;99.90;;;;;;5032647;28;20132;-73
2023/06/16 08:32:19;;;;;;;1999.90;999.90;;;24.60;99.90;;;;;;5034484;28;20414;-72
2023/06/16 08:34:45;;;;;;;1999.90;999.90;;;24.80;99.90;;;;;;5000856;28;20033;-72
2023/06/16 08:37:11;;;;;;;1999.90;999.90;;;24.80;99.90;;;;;;5032814;28;20049;-73
2023/06/16 08:39:36;;;;;;;1999.90;999.90;;;24.90;99.90;;;;;;5032958;28;20080;-73
2023/06/16 08:42:03;;;;;;;1999.90;999.90;;;25.00;99.90;;;;;;5032296;28;20387;-72
2023/06/16 08:44:32;;;;;;;1999.90;999.90;;;25.10;99.90;;;;;;5033143;28;20072;-73
2023/06/16 08:46:58;;;;;;;1999.90;999.90;;;25.30;99.90;;;;;;5015982;28;20049;-72
2023/06/16 08:49:25;;;;;;;1999.90;999.90;;;25.40;99.90;;;;;;5033208;28;20087;-72
2023/06/16 08:51:52;;;;;;;1999.90;999.90;;;25.50;99.90;;;;;;5037715;28;20119;-72
2023/06/16 08:54:25;;;;;;;1999.90;999.90;;;25.70;99.90;;;;;;5032704;28;20462;-73
2023/06/16 08:56:51;;;;;;;1999.90;999.90;;;25.70;99.90;;;;;;5015126;28;20092;-72
2023/06/16 08:59:19;;;;;;;1999.90;999.90;;;25.80;99.90;;;;;;5032366;28;20061;-73
2023/06/16 09:01:46;;;;;;;1999.90;999.90;;;25.90;99.90;;;;;;5034920;28;20049;-73
2023/06/16 09:04:13;;;;;;;1999.90;999.90;;;26.00;99.90;;;;;;5034162;28;20054;-72
2023/06/16 09:06:47;;;;;;;1999.90;999.90;;;26.10;99.90;;;;;;5033421;28;20050;-74
2023/06/16 09:09:14;;;;;;;1999.90;999.90;;;26.20;99.90;;;;;;5017364;28;20116;-72
2023/06/16 09:11:41;;;;;;;1999.90;999.90;;;26.40;99.90;;;;;;5018257;28;20042;-72
2023/06/16 09:14:14;;;;;;;1999.90;999.90;;;26.40;99.90;;;;;;5033935;28;20390;-72
2023/06/16 09:16:41;;;;;;;1999.90;999.90;;;26.50;99.90;;;;;;5032926;28;20115;-73
2023/06/16 09:19:08;;;;;;;1999.90;999.90;;;26.70;99.90;;;;;;5032781;28;20056;-72
2023/06/16 09:21:34;;;;;;;1999.90;999.90;;;26.80;99.90;;;;;;5032684;28;20084;-72
2023/06/16 09:24:00;;;;;;;1999.90;999.90;;;27.00;99.90;;;;;;5032898;28;20502;-72
2023/06/16 09:26:35;;;;;;;1999.90;999.90;;;27.10;99.90;;;;;;5032344;28;20128;-72
2023/06/16 09:29:03;;;;;;;1999.90;999.90;;;27.20;99.90;;;;;;5029528;28;20124;-72
2023/06/16 09:31:28;;;;;;;1999.90;999.90;;;27.30;99.90;;;;;;5032162;28;20043;-72
2023/06/16 09:34:05;;;;;;;1999.90;999.90;;;27.20;99.90;;;;;;5017364;28;20049;-72
2023/06/16 09:36:31;;;;;;;1999.90;999.90;;;27.20;99.90;;;;;;5033069;28;20489;-73
2023/06/16 09:38:57;;;;;;;1999.90;999.90;;;27.30;99.90;;;;;;5032202;28;20049;-72
2023/06/16 09:41:23;;;;;;;1999.90;999.90;;;27.60;99.90;;;;;;5031578;28;20049;-73
2023/06/16 09:43:50;;;;;;;1999.90;999.90;;;27.90;99.90;;;;;;5031198;28;20045;-73
2023/06/16 09:46:15;;;;;;;1999.90;999.90;;;28.10;99.90;;;;;;5014580;28;20077;-73
2023/06/16 09:48:47;;;;;;;1999.90;999.90;;;28.30;99.90;;;;;;5032535;28;20077;-73
2023/06/16 09:51:23;;;;;;;1999.90;999.90;;;28.50;99.90;;;;;;5032645;28;20049;-73
2023/06/16 09:53:51;;;;;;;1999.90;999.90;;;28.70;99.90;;;;;;5033832;28;20045;-73
2023/06/16 09:56:17;;;;;;;1999.90;999.90;;;28.90;99.90;;;;;;5031887;28;20081;-73
2023/06/16 09:58:44;;;;;;;1999.90;999.90;;;29.00;99.90;;;;;;5028830;28;20064;-73
2023/06/16 10:01:13;;;;;;;1999.90;999.90;;;29.10;99.90;;;;;;5034266;28;20207;-73
2023/06/16 10:03:43;;;;;;;1999.90;999.90;;;29.20;99.90;;;;;;5030172;28;20056;-73
2023/06/16 10:06:15;;;;;;;1999.90;999.90;;;29.40;99.90;;;;;;5009601;28;20390;-73
2023/06/16 10:08:42;;;;;;;1999.90;999.90;;;29.60;99.90;;;;;;5027505;28;20045;-79
2023/06/16 10:11:09;;;;;;;;;;;29.70;99.90;;;;;;5026857;28;20053;-73
2023/06/16 10:13:38;;;;;;;1999.90;999.90;;;29.90;99.90;;;;;;5029292;28;19925;-73
2023/06/16 10:16:06;;;;;;;1999.90;999.90;;;30.20;99.90;;;;;;5015143;28;20058;-73
2023/06/16 10:18:33;;;;;;;1999.90;999.90;;;30.50;99.90;;;;;;5006307;28;20109;-73
2023/06/16 10:21:00;;;;;;;1999.90;999.90;;;30.90;99.90;;;;;;5010671;28;20045;-73
2023/06/16 10:23:26;;;;;;;1999.90;999.90;;;31.20;99.90;;;;;;5025303;28;20139;-74
2023/06/16 10:25:51;;;;;;;1999.90;999.90;;;31.40;99.90;;;;;;5006649;28;20108;-79
2023/06/16 10:28:19;;;;;;;1999.90;999.90;;;31.50;99.90;;;;;;5024961;28;20046;-73
2023/06/16 10:30:45;;;;;;;1999.90;999.90;;;31.80;99.90;;;;;;4993731;28;20053;-73
2023/06/16 10:33:20;;;;;;;1999.90;999.90;;;32.20;99.90;;;;;;5027492;28;20033;-73
2023/06/16 10:35:53;;;;;;;1999.90;999.90;;;32.50;99.90;;;;;;5006144;28;20068;-73
2023/06/16 10:38:25;;;;;;;1999.90;999.90;;;32.70;99.90;;;;;;5027193;28;20045;-72
2023/06/16 10:40:56;;;;;;;1999.90;999.90;;;32.90;99.90;;;;;;5006494;28;20131;-73
2023/06/16 10:43:28;;;;;;;1999.90;999.90;;;32.90;99.90;;;;;;5027209;28;20053;-77
2023/06/16 10:46:15;;;;;;;1999.90;999.90;;;33.30;99.90;;;;;;5005936;28;20485;-75
2023/06/16 10:49:09;;;;;;;1999.90;999.90;;;33.50;99.90;;;;;;5010134;28;20069;-73
2023/06/16 10:51:44;;;;;;;1999.90;999.90;;;33.90;99.90;;;;;;5028679;28;20048;-73
2023/06/16 10:54:12;;;;;;;1999.90;999.90;;;34.50;99.90;;;;;;5015209;28;20059;-72
2023/06/16 10:56:59;;;;;;;1999.90;999.90;;;34.70;99.90;;;;;;5030885;28;20045;-73
2023/06/16 10:59:25;;;;;;;1999.90;999.90;;;35.10;99.90;;;;;;5040882;28;20041;-72
2023/06/16 11:01:56;;;;;;;1999.90;999.90;;;35.60;99.90;;;;;;5026116;28;20076;-72
2023/06/16 11:04:23;;;;;;;1999.90;999.90;;;36.00;99.90;;;;;;5026497;28;20041;-72
2023/06/16 11:07:04;;;;;;;1999.90;999.90;;;36.40;99.90;;;;;;5007290;28;20657;-73
2023/06/16 11:09:30;;;;;;;1999.90;999.90;;;36.70;99.90;;;;;;5025060;28;20397;-78
2023/06/16 11:12:02;;;;;;;1999.90;999.90;;;37.00;99.90;;;;;;5025581;28;20037;-72
2023/06/16 11:14:29;;;;;;;1999.90;999.90;;;37.40;99.90;;;;;;5026396;28;20143;-78
2023/06/16 11:16:55;;;;;;;1999.90;999.90;;;37.70;99.90;;;;;;5008232;28;20045;-72
2023/06/16 11:19:21;;;;;;;1999.90;999.90;;;38.00;99.90;;;;;;5010401;28;20486;-73
2023/06/16 11:21:47;;;;;;;1999.90;999.90;;;38.20;99.90;;;;;;5026339;28;20057;-77
2023/06/16 11:24:13;;;;;;;1999.90;999.90;;;38.20;99.90;;;;;;5024618;28;20401;-73
2023/06/16 11:26:39;;;;;;;1999.90;999.90;;;38.00;99.90;;;;;;5023915;28;20049;-73
2023/06/16 11:29:08;;;;;;;1999.90;999.90;;;38.20;99.90;;;;;;5027125;28;20045;-72
2023/06/16 11:31:37;;;;;;;1999.90;999.90;;;38.30;99.90;;;;;;5027672;28;20049;-76
2023/06/16 11:34:04;;;;;;;1999.90;999.90;;;38.20;99.90;;;;;;5024764;28;20048;-71
2023/06/16 11:36:30;;;;;;;1999.90;999.90;;;38.50;99.90;;;;;;5025618;28;20107;-78
2023/06/16 11:38:56;;;;;;;1999.90;999.90;;;38.60;99.90;;;;;;5010164;28;20037;-72
2023/06/16 11:41:24;;;;;;;1999.90;999.90;;;38.20;99.90;;;;;;5029389;28;20061;-74
2023/06/16 11:43:51;;;;;;;1999.90;999.90;;;38.60;99.90;;;;;;5011853;28;20663;-73
2023/06/16 11:46:20;;;;;;;1999.90;999.90;;;38.70;99.90;;;;;;4991734;28;20075;-72
2023/06/16 11:48:46;;;;;;;1999.90;999.90;;;38.90;99.90;;;;;;5008379;28;20090;-73
2023/06/16 11:51:13;;;;;;;1999.90;999.90;;;39.40;99.90;;;;;;5030944;28;20045;-72
2023/06/16 11:53:40;;;;;;;1999.90;999.90;;;39.80;99.90;;;;;;5013393;28;20053;-73
2023/06/16 11:56:07;;;;;;;1999.90;999.90;;;39.90;99.90;;;;;;5010814;28;20053;-72
2023/06/16 11:58:33;;;;;;;1999.90;999.90;;;39.70;99.90;;;;;;5028722;28;20049;-80
2023/06/16 12:01:01;;;;;;;1999.90;999.90;;;39.60;99.90;;;;;;5030466;28;20571;-73
2023/06/16 12:03:33;;;;;;;1999.90;999.90;;;39.60;99.90;;;;;;5030077;28;20304;-72